sensor_id;sensor_type;location;lat;lon;timestamp;temperature;humidity
66831;DHT22;53739;44.224;22.528;2023-05-10T00:01:10;308.00;2304.00
66831;DHT22;53739;44.224;22.528;2023-05-10T00:03:36;308.00;2304.00
66831;DHT22;53739;44.224;22.528;2023-05-10T00:06:02;308.00;2304.00
66831;DHT22;53739;44.224;22.528;2023-05-10T00:08:28;308.00;2304.00
66831;DHT22;53739;44.224;22.528;2023-05-10T00:10:53;307.90;2304.00
66831;DHT22;53739;44.224;22.528;2023-05-10T00:13:19;307.80;2304.00
66831;DHT22;53739;44.224;22.528;2023-05-10T00:15:45;307.80;2304.00
66831;DHT22;53739;44.224;22.528;2023-05-10T00:18:11;307.80;2304.00
66831;DHT22;53739;44.224;22.528;2023-05-10T00:20:37;307.80;2304.00
66831;DHT22;53739;44.224;22.528;2023-05-10T00:23:03;307.80;2304.00
66831;DHT22;53739;44.224;22.528;2023-05-10T00:25:28;307.80;2304.00
66831;DHT22;53739;44.224;22.528;2023-05-10T00:27:54;307.80;2304.00
66831;DHT22;53739;44.224;22.528;2023-05-10T00:30:23;307.70;2304.00
66831;DHT22;53739;44.224;22.528;2023-05-10T00:32:49;307.70;2304.00
66831;DHT22;53739;44.224;22.528;2023-05-10T00:35:15;307.60;2304.00
66831;DHT22;53739;44.224;22.528;2023-05-10T00:37:41;307.50;2304.00
66831;DHT22;53739;44.224;22.528;2023-05-10T00:40:08;307.60;2304.00
66831;DHT22;53739;44.224;22.528;2023-05-10T00:42:33;307.50;2304.00
66831;DHT22;53739;44.224;22.528;2023-05-10T00:44:59;307.50;2304.00
66831;DHT22;53739;44.224;22.528;2023-05-10T00:47:25;307.50;2304.00
66831;DHT22;53739;44.224;22.528;2023-05-10T00:49:51;307.40;2304.00
66831;DHT22;53739;44.224;22.528;2023-05-10T00:52:17;307.40;2304.00
66831;DHT22;53739;44.224;22.528;2023-05-10T00:54:43;307.30;2304.00
66831;DHT22;53739;44.224;22.528;2023-05-10T00:57:09;307.30;2304.00
66831;DHT22;53739;44.224;22.528;2023-05-10T00:59:35;307.40;2304.00
66831;DHT22;53739;44.224;22.528;2023-05-10T01:02:01;307.40;2304.00
66831;DHT22;53739;44.224;22.528;2023-05-10T01:04:27;307.50;2304.00
66831;DHT22;53739;44.224;22.528;2023-05-10T01:06:53;307.50;2304.00
66831;DHT22;53739;44.224;22.528;2023-05-10T01:09:20;307.50;2304.00
66831;DHT22;53739;44.224;22.528;2023-05-10T01:11:47;307.50;2304.00
66831;DHT22;53739;44.224;22.528;2023-05-10T01:14:15;307.50;2304.00
66831;DHT22;53739;44.224;22.528;2023-05-10T01:16:44;307.60;2304.00
66831;DHT22;53739;44.224;22.528;2023-05-10T01:19:24;307.60;2304.00
66831;DHT22;53739;44.224;22.528;2023-05-10T01:36:13;307.50;2304.00
66831;DHT22;53739;44.224;22.528;2023-05-10T01:41:47;307.30;2304.00
66831;DHT22;53739;44.224;22.528;2023-05-10T01:44:24;307.30;2304.00
66831;DHT22;53739;44.224;22.528;2023-05-10T01:49:52;307.30;2304.00
66831;DHT22;53739;44.224;22.528;2023-05-10T01:52:25;307.30;2304.00
66831;DHT22;53739;44.224;22.528;2023-05-10T01:55:06;307.30;2304.00
66831;DHT22;53739;44.224;22.528;2023-05-10T01:57:34;307.30;2304.00
66831;DHT22;53739;44.224;22.528;2023-05-10T02:00:04;307.30;2304.00
66831;DHT22;53739;44.224;22.528;2023-05-10T02:02:39;307.30;2304.00
66831;DHT22;53739;44.224;22.528;2023-05-10T02:05:06;307.40;2304.00
66831;DHT22;53739;44.224;22.528;2023-05-10T02:07:37;307.40;2304.00
66831;DHT22;53739;44.224;22.528;2023-05-10T02:10:05;307.40;2304.00
66831;DHT22;53739;44.224;22.528;2023-05-10T02:12:36;307.40;2304.00
66831;DHT22;53739;44.224;22.528;2023-05-10T02:15:04;307.30;2304.00
66831;DHT22;53739;44.224;22.528;2023-05-10T02:17:32;307.30;2304.00
66831;DHT22;53739;44.224;22.528;2023-05-10T02:19:59;307.30;2304.00
66831;DHT22;53739;44.224;22.528;2023-05-10T02:22:27;307.30;2304.00
66831;DHT22;53739;44.224;22.528;2023-05-10T02:24:58;307.30;2304.00
66831;DHT22;53739;44.224;22.528;2023-05-10T02:27:24;307.30;2304.00
66831;DHT22;53739;44.224;22.528;2023-05-10T02:29:51;307.30;2304.00
66831;DHT22;53739;44.224;22.528;2023-05-10T02:32:19;307.30;2304.00
66831;DHT22;53739;44.224;22.528;2023-05-10T02:34:45;307.40;2304.00
66831;DHT22;53739;44.224;22.528;2023-05-10T02:37:19;307.40;2304.00
66831;DHT22;53739;44.224;22.528;2023-05-10T02:39:49;307.40;2304.00
66831;DHT22;53739;44.224;22.528;2023-05-10T02:42:18;307.40;2304.00
66831;DHT22;53739;44.224;22.528;2023-05-10T02:44:50;307.30;2304.00
66831;DHT22;53739;44.224;22.528;2023-05-10T02:47:18;307.40;2304.00
66831;DHT22;53739;44.224;22.528;2023-05-10T02:49:44;307.30;2304.00
66831;DHT22;53739;44.224;22.528;2023-05-10T02:52:10;307.30;2304.00
66831;DHT22;53739;44.224;22.528;2023-05-10T02:54:49;307.30;2304.00
66831;DHT22;53739;44.224;22.528;2023-05-10T02:57:17;307.30;2304.00
66831;DHT22;53739;44.224;22.528;2023-05-10T02:59:45;307.30;2304.00
66831;DHT22;53739;44.224;22.528;2023-05-10T03:02:12;307.30;2304.00
66831;DHT22;53739;44.224;22.528;2023-05-10T03:04:39;307.30;2304.00
66831;DHT22;53739;44.224;22.528;2023-05-10T03:07:04;307.30;2304.00
66831;DHT22;53739;44.224;22.528;2023-05-10T03:09:31;307.30;2304.00
66831;DHT22;53739;44.224;22.528;2023-05-10T03:15:00;307.30;2304.00
66831;DHT22;53739;44.224;22.528;2023-05-10T03:19:58;307.20;2304.00
66831;DHT22;53739;44.224;22.528;2023-05-10T03:22:32;307.20;2304.00
66831;DHT22;53739;44.224;22.528;2023-05-10T03:25:04;307.20;2304.00
66831;DHT22;53739;44.224;22.528;2023-05-10T03:27:31;282.50;2278.40
66831;DHT22;53739;44.224;22.528;2023-05-10T03:29:58;307.20;2304.00
66831;DHT22;53739;44.224;22.528;2023-05-10T03:32:24;307.20;2304.00
66831;DHT22;53739;44.224;22.528;2023-05-10T03:34:50;307.20;2304.00
66831;DHT22;53739;44.224;22.528;2023-05-10T03:37:15;307.20;2304.00
66831;DHT22;53739;44.224;22.528;2023-05-10T03:39:41;307.20;2304.00
66831;DHT22;53739;44.224;22.528;2023-05-10T03:42:07;307.20;2304.00
66831;DHT22;53739;44.224;22.528;2023-05-10T03:44:33;307.20;2304.00
66831;DHT22;53739;44.224;22.528;2023-05-10T03:46:59;307.20;2304.00
66831;DHT22;53739;44.224;22.528;2023-05-10T03:49:24;307.20;2304.00
66831;DHT22;53739;44.224;22.528;2023-05-10T03:51:50;307.20;2304.00
66831;DHT22;53739;44.224;22.528;2023-05-10T03:54:16;307.20;2304.00
66831;DHT22;53739;44.224;22.528;2023-05-10T03:56:42;307.30;2304.00
66831;DHT22;53739;44.224;22.528;2023-05-10T03:59:07;307.30;2304.00
66831;DHT22;53739;44.224;22.528;2023-05-10T04:01:34;307.30;2304.00
66831;DHT22;53739;44.224;22.528;2023-05-10T04:04:00;307.30;2304.00
66831;DHT22;53739;44.224;22.528;2023-05-10T04:06:26;307.20;2304.00
66831;DHT22;53739;44.224;22.528;2023-05-10T04:08:52;307.20;2304.00
66831;DHT22;53739;44.224;22.528;2023-05-10T04:11:17;307.20;2304.00
66831;DHT22;53739;44.224;22.528;2023-05-10T04:13:43;307.20;2304.00
66831;DHT22;53739;44.224;22.528;2023-05-10T04:16:09;307.20;2304.00
66831;DHT22;53739;44.224;22.528;2023-05-10T04:18:35;307.20;2304.00
66831;DHT22;53739;44.224;22.528;2023-05-10T04:21:01;307.20;2304.00
66831;DHT22;53739;44.224;22.528;2023-05-10T04:23:27;307.20;2304.00
66831;DHT22;53739;44.224;22.528;2023-05-10T04:25:58;307.20;2304.00
66831;DHT22;53739;44.224;22.528;2023-05-10T04:28:24;307.20;2304.00
66831;DHT22;53739;44.224;22.528;2023-05-10T04:30:50;307.20;2304.00
66831;DHT22;53739;44.224;22.528;2023-05-10T04:33:15;307.20;2304.00
66831;DHT22;53739;44.224;22.528;2023-05-10T04:35:41;307.20;2304.00
66831;DHT22;53739;44.224;22.528;2023-05-10T04:38:07;307.20;2304.00
66831;DHT22;53739;44.224;22.528;2023-05-10T04:40:33;307.20;2304.00
66831;DHT22;53739;44.224;22.528;2023-05-10T04:42:59;307.20;2304.00
66831;DHT22;53739;44.224;22.528;2023-05-10T04:45:25;282.50;2278.40
66831;DHT22;53739;44.224;22.528;2023-05-10T04:47:51;307.20;2304.00
66831;DHT22;53739;44.224;22.528;2023-05-10T04:50:16;307.20;2304.00
66831;DHT22;53739;44.224;22.528;2023-05-10T04:52:42;307.20;2304.00
66831;DHT22;53739;44.224;22.528;2023-05-10T04:55:08;307.20;2304.00
66831;DHT22;53739;44.224;22.528;2023-05-10T04:57:35;307.20;2304.00
66831;DHT22;53739;44.224;22.528;2023-05-10T05:00:01;307.30;2304.00
66831;DHT22;53739;44.224;22.528;2023-05-10T05:02:27;307.30;2304.00
66831;DHT22;53739;44.224;22.528;2023-05-10T05:04:53;307.30;2304.00
66831;DHT22;53739;44.224;22.528;2023-05-10T05:07:21;307.30;2304.00
66831;DHT22;53739;44.224;22.528;2023-05-10T05:09:47;307.40;2304.00
66831;DHT22;53739;44.224;22.528;2023-05-10T05:12:13;307.40;2304.00
66831;DHT22;53739;44.224;22.528;2023-05-10T05:14:40;307.40;2304.00
66831;DHT22;53739;44.224;22.528;2023-05-10T05:17:07;307.40;2304.00
66831;DHT22;53739;44.224;22.528;2023-05-10T05:19:33;307.40;2304.00
66831;DHT22;53739;44.224;22.528;2023-05-10T05:22:01;307.50;2304.00
66831;DHT22;53739;44.224;22.528;2023-05-10T05:24:26;307.50;2304.00
66831;DHT22;53739;44.224;22.528;2023-05-10T05:26:55;307.50;2304.00
66831;DHT22;53739;44.224;22.528;2023-05-10T05:29:20;307.50;2304.00
66831;DHT22;53739;44.224;22.528;2023-05-10T05:31:46;307.50;2304.00
66831;DHT22;53739;44.224;22.528;2023-05-10T05:34:12;307.60;2304.00
66831;DHT22;53739;44.224;22.528;2023-05-10T05:36:38;307.60;2304.00
66831;DHT22;53739;44.224;22.528;2023-05-10T05:39:04;307.60;2304.00
66831;DHT22;53739;44.224;22.528;2023-05-10T05:41:29;307.60;2304.00
66831;DHT22;53739;44.224;22.528;2023-05-10T05:43:55;307.60;2304.00
66831;DHT22;53739;44.224;22.528;2023-05-10T05:46:21;307.60;2304.00
66831;DHT22;53739;44.224;22.528;2023-05-10T05:48:47;307.60;2304.00
66831;DHT22;53739;44.224;22.528;2023-05-10T05:51:12;307.60;2304.00
66831;DHT22;53739;44.224;22.528;2023-05-10T05:53:38;307.60;2304.00
66831;DHT22;53739;44.224;22.528;2023-05-10T05:56:04;307.70;2304.00
66831;DHT22;53739;44.224;22.528;2023-05-10T05:58:30;307.70;2304.00
66831;DHT22;53739;44.224;22.528;2023-05-10T06:00:56;307.70;2304.00
66831;DHT22;53739;44.224;22.528;2023-05-10T06:03:22;307.70;2304.00
66831;DHT22;53739;44.224;22.528;2023-05-10T06:05:48;307.80;2304.00
66831;DHT22;53739;44.224;22.528;2023-05-10T06:08:13;307.90;2304.00
66831;DHT22;53739;44.224;22.528;2023-05-10T06:10:39;308.00;2304.00
66831;DHT22;53739;44.224;22.528;2023-05-10T06:13:05;308.00;2304.00
66831;DHT22;53739;44.224;22.528;2023-05-10T06:15:31;308.10;2304.00
66831;DHT22;53739;44.224;22.528;2023-05-10T06:17:58;332.80;2329.60
66831;DHT22;53739;44.224;22.528;2023-05-10T06:20:23;332.80;2329.60
66831;DHT22;53739;44.224;22.528;2023-05-10T06:22:49;332.90;2329.60
66831;DHT22;53739;44.224;22.528;2023-05-10T06:25:15;333.00;2329.60
66831;DHT22;53739;44.224;22.528;2023-05-10T06:27:43;333.00;2329.60
66831;DHT22;53739;44.224;22.528;2023-05-10T06:30:09;333.10;2329.60
66831;DHT22;53739;44.224;22.528;2023-05-10T06:32:35;333.20;2329.60
66831;DHT22;53739;44.224;22.528;2023-05-10T06:35:01;333.20;2329.60
66831;DHT22;53739;44.224;22.528;2023-05-10T06:37:27;333.20;2329.60
66831;DHT22;53739;44.224;22.528;2023-05-10T06:39:53;333.30;2329.60
66831;DHT22;53739;44.224;22.528;2023-05-10T06:42:18;333.40;2329.60
66831;DHT22;53739;44.224;22.528;2023-05-10T06:44:44;333.40;2329.60
66831;DHT22;53739;44.224;22.528;2023-05-10T06:47:10;333.40;2329.60
66831;DHT22;53739;44.224;22.528;2023-05-10T06:49:36;333.50;2329.60
66831;DHT22;53739;44.224;22.528;2023-05-10T06:52:02;333.40;2329.60
66831;DHT22;53739;44.224;22.528;2023-05-10T06:54:28;333.50;2329.60
66831;DHT22;53739;44.224;22.528;2023-05-10T06:56:54;333.50;128.00
66831;DHT22;53739;44.224;22.528;2023-05-10T06:59:19;333.60;2329.60
66831;DHT22;53739;44.224;22.528;2023-05-10T07:01:47;333.60;2329.60
66831;DHT22;53739;44.224;22.528;2023-05-10T07:04:13;333.60;128.00
66831;DHT22;53739;44.224;22.528;2023-05-10T07:06:39;333.60;128.00
66831;DHT22;53739;44.224;22.528;2023-05-10T07:09:04;333.70;128.00
66831;DHT22;53739;44.224;22.528;2023-05-10T07:11:30;333.60;2329.60
66831;DHT22;53739;44.224;22.528;2023-05-10T07:13:56;333.60;128.00
66831;DHT22;53739;44.224;22.528;2023-05-10T07:16:22;333.50;128.00
66831;DHT22;53739;44.224;22.528;2023-05-10T07:18:47;333.50;128.00
66831;DHT22;53739;44.224;22.528;2023-05-10T07:21:13;333.60;128.00
66831;DHT22;53739;44.224;22.528;2023-05-10T07:23:39;333.70;128.00
66831;DHT22;53739;44.224;22.528;2023-05-10T07:26:05;333.60;128.00
66831;DHT22;53739;44.224;22.528;2023-05-10T07:28:30;333.60;128.00
66831;DHT22;53739;44.224;22.528;2023-05-10T07:30:56;333.70;358.40
66831;DHT22;53739;44.224;22.528;2023-05-10T07:33:22;333.70;128.00
66831;DHT22;53739;44.224;22.528;2023-05-10T07:35:49;333.70;128.00
66831;DHT22;53739;44.224;22.528;2023-05-10T07:38:15;358.40;128.00
66831;DHT22;53739;44.224;22.528;2023-05-10T07:40:41;358.50;128.00
66831;DHT22;53739;44.224;22.528;2023-05-10T07:43:06;358.50;128.00
66831;DHT22;53739;44.224;22.528;2023-05-10T07:45:33;358.50;128.00
66831;DHT22;53739;44.224;22.528;2023-05-10T07:47:59;358.50;128.00
66831;DHT22;53739;44.224;22.528;2023-05-10T07:50:25;358.50;128.00
66831;DHT22;53739;44.224;22.528;2023-05-10T07:52:51;358.50;128.00
66831;DHT22;53739;44.224;22.528;2023-05-10T07:55:18;358.50;128.00
66831;DHT22;53739;44.224;22.528;2023-05-10T07:57:44;358.50;128.00
66831;DHT22;53739;44.224;22.528;2023-05-10T08:00:12;358.60;128.00
66831;DHT22;53739;44.224;22.528;2023-05-10T08:02:39;358.50;128.00
66831;DHT22;53739;44.224;22.528;2023-05-10T08:05:05;358.50;128.00
66831;DHT22;53739;44.224;22.528;2023-05-10T08:07:31;358.50;128.00
66831;DHT22;53739;44.224;22.528;2023-05-10T08:09:57;358.50;128.00
66831;DHT22;53739;44.224;22.528;2023-05-10T08:12:22;358.50;128.00
66831;DHT22;53739;44.224;22.528;2023-05-10T08:14:48;358.50;128.00
66831;DHT22;53739;44.224;22.528;2023-05-10T08:17:14;358.50;128.00
66831;DHT22;53739;44.224;22.528;2023-05-10T08:19:40;358.50;409.60
66831;DHT22;53739;44.224;22.528;2023-05-10T08:22:05;358.50;128.00
66831;DHT22;53739;44.224;22.528;2023-05-10T08:24:31;358.50;128.00
66831;DHT22;53739;44.224;22.528;2023-05-10T08:26:57;358.50;128.00
66831;DHT22;53739;44.224;22.528;2023-05-10T08:29:23;358.60;128.00
66831;DHT22;53739;44.224;22.528;2023-05-10T08:31:49;358.50;486.40
66831;DHT22;53739;44.224;22.528;2023-05-10T08:34:15;358.60;128.00
66831;DHT22;53739;44.224;22.528;2023-05-10T08:36:41;358.60;128.00
66831;DHT22;53739;44.224;22.528;2023-05-10T08:39:07;358.60;128.00
66831;DHT22;53739;44.224;22.528;2023-05-10T08:41:33;358.60;128.00
66831;DHT22;53739;44.224;22.528;2023-05-10T08:44:03;358.70;460.80
66831;DHT22;53739;44.224;22.528;2023-05-10T08:46:31;358.80;128.00
66831;DHT22;53739;44.224;22.528;2023-05-10T08:49:02;358.90;563.20
66831;DHT22;53739;44.224;22.528;2023-05-10T08:51:32;359.00;128.00
66831;DHT22;53739;44.224;22.528;2023-05-10T08:54:01;359.00;128.00
66831;DHT22;53739;44.224;22.528;2023-05-10T08:56:28;359.00;128.00
66831;DHT22;53739;44.224;22.528;2023-05-10T08:58:53;359.10;128.00
66831;DHT22;53739;44.224;22.528;2023-05-10T09:01:21;359.20;179.20
66831;DHT22;53739;44.224;22.528;2023-05-10T09:03:47;359.20;128.00
66831;DHT22;53739;44.224;22.528;2023-05-10T09:06:14;359.20;128.00
66831;DHT22;53739;44.224;22.528;2023-05-10T09:08:41;359.20;128.00
66831;DHT22;53739;44.224;22.528;2023-05-10T09:11:09;359.20;128.00
66831;DHT22;53739;44.224;22.528;2023-05-10T09:13:36;359.20;128.00
66831;DHT22;53739;44.224;22.528;2023-05-10T09:16:03;359.30;128.00
66831;DHT22;53739;44.224;22.528;2023-05-10T09:18:29;359.30;128.00
66831;DHT22;53739;44.224;22.528;2023-05-10T09:20:55;384.00;128.00
66831;DHT22;53739;44.224;22.528;2023-05-10T09:23:21;384.00;128.00
66831;DHT22;53739;44.224;22.528;2023-05-10T09:25:46;384.00;332.80
66831;DHT22;53739;44.224;22.528;2023-05-10T09:28:12;384.10;204.80
66831;DHT22;53739;44.224;22.528;2023-05-10T09:30:38;384.10;358.40
66831;DHT22;53739;44.224;22.528;2023-05-10T09:33:04;384.10;2329.60
66831;DHT22;53739;44.224;22.528;2023-05-10T09:35:32;384.20;128.00
66831;DHT22;53739;44.224;22.528;2023-05-10T09:38:05;384.20;128.00
66831;DHT22;53739;44.224;22.528;2023-05-10T09:40:31;384.20;2329.60
66831;DHT22;53739;44.224;22.528;2023-05-10T09:43:03;384.20;2329.60
66831;DHT22;53739;44.224;22.528;2023-05-10T09:45:30;384.30;2329.60
66831;DHT22;53739;44.224;22.528;2023-05-10T09:52:58;384.60;128.00
66831;DHT22;53739;44.224;22.528;2023-05-10T09:55:41;384.40;128.00
66831;DHT22;53739;44.224;22.528;2023-05-10T09:58:09;384.60;2329.60
66831;DHT22;53739;44.224;22.528;2023-05-10T10:00:43;384.70;2329.60
66831;DHT22;53739;44.224;22.528;2023-05-10T10:03:14;384.70;128.00
66831;DHT22;53739;44.224;22.528;2023-05-10T10:05:41;384.70;2329.60
66831;DHT22;53739;44.224;22.528;2023-05-10T12:59:56;512.40;128.00
66831;DHT22;53739;44.224;22.528;2023-05-10T13:02:21;512.30;128.00
66831;DHT22;53739;44.224;22.528;2023-05-10T13:04:48;512.10;128.00
66831;DHT22;53739;44.224;22.528;2023-05-10T13:12:07;512.70;768.00
66831;DHT22;53739;44.224;22.528;2023-05-10T13:14:33;512.40;2329.60
66831;DHT22;53739;44.224;22.528;2023-05-10T13:16:58;512.00;2380.80
66831;DHT22;53739;44.224;22.528;2023-05-10T13:19:25;487.30;2380.80
66831;DHT22;53739;44.224;22.528;2023-05-10T13:21:51;487.30;2380.80
66831;DHT22;53739;44.224;22.528;2023-05-10T13:24:17;487.10;2380.80
66831;DHT22;53739;44.224;22.528;2023-05-10T13:26:43;487.10;2380.80
66831;DHT22;53739;44.224;22.528;2023-05-10T13:29:09;487.10;2380.80
66831;DHT22;53739;44.224;22.528;2023-05-10T13:31:35;487.20;2380.80
66831;DHT22;53739;44.224;22.528;2023-05-10T13:34:01;487.20;2124.80
66831;DHT22;53739;44.224;22.528;2023-05-10T13:36:28;487.30;1868.80
66831;DHT22;53739;44.224;22.528;2023-05-10T13:38:53;487.20;2355.20
66831;DHT22;53739;44.224;22.528;2023-05-10T13:41:19;487.20;256.00
66831;DHT22;53739;44.224;22.528;2023-05-10T13:43:45;487.20;2380.80
66831;DHT22;53739;44.224;22.528;2023-05-10T13:46:11;487.20;128.00
66831;DHT22;53739;44.224;22.528;2023-05-10T13:48:37;487.10;1766.40
66831;DHT22;53739;44.224;22.528;2023-05-10T13:51:03;487.10;691.20
66831;DHT22;53739;44.224;22.528;2023-05-10T14:08:07;487.00;1664.00
66831;DHT22;53739;44.224;22.528;2023-05-10T14:10:34;486.90;128.00
66831;DHT22;53739;44.224;22.528;2023-05-10T17:58:07;435.30;128.00
66831;DHT22;53739;44.224;22.528;2023-05-10T18:00:33;410.50;128.00
66831;DHT22;53739;44.224;22.528;2023-05-10T18:02:58;410.50;2355.20
66831;DHT22;53739;44.224;22.528;2023-05-10T18:05:24;410.50;2355.20
66831;DHT22;53739;44.224;22.528;2023-05-10T18:07:50;410.40;2355.20
66831;DHT22;53739;44.224;22.528;2023-05-10T18:10:16;410.40;2355.20
66831;DHT22;53739;44.224;22.528;2023-05-10T18:12:42;410.30;2355.20
66831;DHT22;53739;44.224;22.528;2023-05-10T18:15:08;410.30;2355.20
66831;DHT22;53739;44.224;22.528;2023-05-10T18:17:34;410.20;2355.20
66831;DHT22;53739;44.224;22.528;2023-05-10T18:20:00;410.20;2355.20
66831;DHT22;53739;44.224;22.528;2023-05-10T18:22:28;410.20;2355.20
66831;DHT22;53739;44.224;22.528;2023-05-10T18:25:02;410.20;2355.20
66831;DHT22;53739;44.224;22.528;2023-05-10T18:27:28;410.10;2355.20
66831;DHT22;53739;44.224;22.528;2023-05-10T18:29:53;410.00;2355.20
66831;DHT22;53739;44.224;22.528;2023-05-10T18:32:19;410.10;2355.20
66831;DHT22;53739;44.224;22.528;2023-05-10T18:34:46;410.00;2355.20
66831;DHT22;53739;44.224;22.528;2023-05-10T18:37:12;410.00;2355.20
66831;DHT22;53739;44.224;22.528;2023-05-10T18:39:39;410.00;2355.20
66831;DHT22;53739;44.224;22.528;2023-05-10T18:42:07;409.90;2355.20
66831;DHT22;53739;44.224;22.528;2023-05-10T18:44:33;410.00;2355.20
66831;DHT22;53739;44.224;22.528;2023-05-10T18:46:59;410.00;2355.20
66831;DHT22;53739;44.224;22.528;2023-05-10T18:49:25;409.90;2355.20
66831;DHT22;53739;44.224;22.528;2023-05-10T18:51:52;409.90;2355.20
66831;DHT22;53739;44.224;22.528;2023-05-10T18:54:18;409.90;2355.20
66831;DHT22;53739;44.224;22.528;2023-05-10T18:56:44;409.90;2355.20
66831;DHT22;53739;44.224;22.528;2023-05-10T19:16:15;409.80;1689.60
66831;DHT22;53739;44.224;22.528;2023-05-10T20:02:59;384.60;128.00
66831;DHT22;53739;44.224;22.528;2023-05-10T20:05:24;384.30;128.00
66831;DHT22;53739;44.224;22.528;2023-05-10T20:10:17;384.40;128.00
66831;DHT22;53739;44.224;22.528;2023-05-10T20:12:49;384.30;128.00
66831;DHT22;53739;44.224;22.528;2023-05-10T20:15:21;384.30;128.00
66831;DHT22;53739;44.224;22.528;2023-05-10T20:17:48;384.20;128.00
66831;DHT22;53739;44.224;22.528;2023-05-10T20:20:19;384.10;128.00
66831;DHT22;53739;44.224;22.528;2023-05-10T20:22:46;384.20;128.00
